Time;durP1;ratioP1;P1;durP2;ratioP2;P2;SDS_P1;SDS_P2;PMS_P1;PMS_P2;Temp;Humidity;BMP_temperature;BMP_pressure;BME280_temperature;BME280_humidity;BME280_pressure;Samples;Min_cycle;Max_cycle;Signal;HPM_P1;HPM_P2
2021/08/24 00:01:33;;;;;;;6.95;2.92;;;;;;;15.43;100.00;98099.50;5054031;28;20027;-78
2021/08/24 00:03:59;;;;;;;3.25;2.60;;;;;;;15.28;100.00;98085.38;5072740;28;20107;-77
2021/08/24 00:06:24;;;;;;;4.95;3.10;;;;;;;15.33;100.00;98087.97;5072393;28;20020;-79
2021/08/24 00:08:49;;;;;;;5.05;2.97;;;;;;;15.46;100.00;98100.78;5072705;28;20016;-78
2021/08/24 00:11:15;;;;;;;4.03;3.55;;;;;;;15.28;100.00;98088.13;5072512;28;20040;-79
2021/08/24 00:13:40;;;;;;;8.02;3.40;;;;;;;15.26;100.00;98093.94;5072842;28;20091;-80
2021/08/24 00:16:07;;;;;;;4.65;3.70;;;;;;;15.28;100.00;98086.19;5072619;28;20086;-78
2021/08/24 00:18:33;;;;;;;6.80;3.53;;;;;;;15.38;100.00;98091.38;5072247;28;20063;-77
2021/08/24 00:20:59;;;;;;;5.18;3.70;;;;;;;15.28;100.00;98090.88;5071966;28;20021;-79
2021/08/24 00:23:27;;;;;;;4.97;3.90;;;;;;;15.28;100.00;98096.41;5071950;28;20074;-78
2021/08/24 00:25:54;;;;;;;4.32;3.47;;;;;;;15.07;100.00;98087.91;5037655;28;20036;-78
2021/08/24 00:28:20;;;;;;;3.88;2.90;;;;;;;15.00;100.00;98085.63;5072246;28;20033;-79
2021/08/24 00:30:46;;;;;;;4.88;3.08;;;;;;;15.00;100.00;98091.13;5072333;28;20028;-78
2021/08/24 00:33:13;;;;;;;4.45;3.22;;;;;;;15.08;100.00;98080.47;5072191;28;20025;-78
2021/08/24 00:35:41;;;;;;;2.80;2.60;;;;;;;15.01;100.00;98092.78;5053664;28;20090;-77
2021/08/24 00:38:11;;;;;;;4.68;3.35;;;;;;;14.76;100.00;98093.50;5072196;28;20059;-77
2021/08/24 00:40:37;;;;;;;3.97;2.85;;;;;;;14.64;100.00;98098.81;5071955;28;20058;-78
2021/08/24 00:43:04;;;;;;;4.15;2.80;;;;;;;14.51;100.00;98094.22;5076332;28;20022;-79
2021/08/24 00:45:33;;;;;;;3.65;3.17;;;;;;;14.45;100.00;98095.50;5072369;28;20021;-79
2021/08/24 00:47:59;;;;;;;4.72;3.67;;;;;;;14.45;100.00;98096.31;5071583;28;20029;-81
2021/08/24 00:50:35;;;;;;;4.65;3.00;;;;;;;14.42;100.00;98082.38;5072050;28;20036;-78
2021/08/24 00:53:13;;;;;;;5.00;4.43;;;;;;;14.48;100.00;98090.16;5072098;28;20382;-79
2021/08/24 00:55:41;;;;;;;4.38;3.33;;;;;;;14.35;100.00;98080.06;5072054;28;20101;-79
2021/08/24 00:58:10;;;;;;;3.45;3.15;;;;;;;14.25;100.00;98074.78;5071776;28;20058;-80
2021/08/24 01:00:37;;;;;;;3.55;2.75;;;;;;;14.29;100.00;98074.97;5071607;28;20035;-80
2021/08/24 01:03:24;;;;;;;5.40;2.90;;;;;;;14.26;100.00;98078.38;5071877;28;20027;-78
2021/08/24 01:05:53;;;;;;;3.22;2.92;;;;;;;14.27;100.00;98077.25;5071647;28;20544;-78
2021/08/24 01:08:24;;;;;;;4.40;3.13;;;;;;;14.33;100.00;98076.00;5071471;28;20038;-78
2021/08/24 01:11:16;;;;;;;4.20;2.60;;;;;;;14.40;100.00;98085.44;5053883;28;20064;-80
2021/08/24 01:14:04;;;;;;;7.20;2.80;;;;;;;14.31;100.00;98070.81;5053779;28;20075;-80
2021/08/24 01:16:48;;;;;;;3.72;2.85;;;;;;;14.37;100.00;98077.00;5071476;28;20029;-78
2021/08/24 01:19:34;;;;;;;3.90;2.78;;;;;;;14.47;100.00;98071.22;5071613;28;20060;-80
2021/08/24 01:22:38;;;;;;;3.72;2.55;;;;;;;14.39;100.00;98080.25;5071724;28;20078;-80
2021/08/24 01:25:18;;;;;;;3.40;2.33;;;;;;;14.54;100.00;98079.00;5035163;28;20040;-80
2021/08/24 01:27:53;;;;;;;3.03;2.72;;;;;;;14.55;100.00;98075.13;5071783;28;20115;-79
2021/08/24 01:30:40;;;;;;;3.38;2.60;;;;;;;14.56;100.00;98074.00;5071488;28;20499;-83
2021/08/24 01:33:08;;;;;;;;;;;;;;;14.66;100.00;98077.28;5053844;28;20031;-79
2021/08/24 01:35:55;;;;;;;4.53;3.00;;;;;;;14.93;100.00;98084.50;5053649;28;19912;-80
2021/08/24 01:38:24;;;;;;;4.15;2.33;;;;;;;15.00;100.00;98077.38;5071200;28;20021;-78
2021/08/24 01:41:32;;;;;;;2.85;2.55;;;;;;;14.92;100.00;98072.66;5071353;28;20048;-81
2021/08/24 01:44:11;;;;;;;2.60;2.35;;;;;;;15.14;100.00;98076.41;5014367;28;20038;-80
2021/08/24 01:46:59;;;;;;;4.55;2.50;;;;;;;15.14;100.00;98074.47;5016591;28;20057;-82
2021/08/24 01:49:45;;;;;;;2.65;2.15;;;;;;;14.81;100.00;98068.59;5053037;28;20383;-82
2021/08/24 01:52:17;;;;;;;2.83;2.58;;;;;;;14.59;100.00;98068.69;5091351;28;20128;-80
2021/08/24 01:54:55;;;;;;;2.63;2.40;;;;;;;14.48;100.00;98070.09;5073209;28;20123;-83
2021/08/24 01:57:28;;;;;;;2.72;2.22;;;;;;;14.48;100.00;98059.88;5091168;28;20027;-82
2021/08/24 01:59:59;;;;;;;4.43;2.35;;;;;;;14.64;100.00;98071.28;5090223;28;20077;-81
2021/08/24 02:02:36;;;;;;;3.03;2.30;;;;;;;14.70;100.00;98070.00;5089985;28;20051;-81
2021/08/24 02:05:10;;;;;;;5.38;2.33;;;;;;;14.65;100.00;98072.91;5071977;28;20032;-81
2021/08/24 02:07:37;;;;;;;4.45;2.17;;;;;;;14.65;100.00;98067.41;5090045;28;20027;-79
2021/08/24 02:10:09;;;;;;;2.22;2.00;;;;;;;14.68;100.00;98068.72;5089483;28;20096;-81
2021/08/24 02:12:40;;;;;;;2.10;1.90;;;;;;;14.52;100.00;98062.81;5090002;28;20032;-80
2021/08/24 02:15:06;;;;;;;2.78;2.30;;;;;;;14.63;100.00;98053.13;5091804;28;20025;-84
2021/08/24 02:17:34;;;;;;;4.55;1.77;;;;;;;14.91;100.00;98068.28;5091823;28;20032;-82
2021/08/24 02:20:06;;;;;;;3.63;2.70;;;;;;;14.99;100.00;98061.19;5091168;28;20040;-80
2021/08/24 02:22:37;;;;;;;3.47;2.97;;;;;;;14.96;100.00;98065.38;5091679;28;20085;-82
2021/08/24 02:25:10;;;;;;;3.67;2.92;;;;;;;15.13;100.00;98072.84;5091858;28;20110;-83
2021/08/24 02:27:45;;;;;;;4.50;2.55;;;;;;;14.91;100.00;98068.28;5091264;28;20030;-83
2021/08/24 02:30:11;;;;;;;3.03;2.53;;;;;;;14.95;100.00;98065.69;5091545;28;20020;-84
2021/08/24 02:32:41;;;;;;;5.63;3.35;;;;;;;14.96;100.00;98065.38;5091797;28;20016;-81
2021/08/24 02:35:22;;;;;;;6.80;3.70;;;;;;;14.90;100.00;98061.16;5076746;28;20024;-81
2021/08/24 02:37:50;;;;;;;7.13;2.75;;;;;;;14.83;100.00;98066.31;5092217;28;20103;-81
2021/08/24 02:40:50;;;;;;;4.40;3.30;;;;;;;14.64;100.00;98065.78;5090589;28;20107;-79
2021/08/24 02:43:44;;;;;;;5.45;4.10;;;;;;;14.54;100.00;98062.47;5091678;28;20031;-80
2021/08/24 02:46:16;;;;;;;6.72;4.22;;;;;;;14.63;100.00;98080.66;5076542;28;20036;-79
2021/08/24 02:48:47;;;;;;;4.65;3.75;;;;;;;14.74;100.00;98073.75;5091237;28;20123;-81
2021/08/24 02:51:15;;;;;;;6.55;4.25;;;;;;;14.73;100.00;98061.09;5091144;28;20035;-82
2021/08/24 02:53:48;;;;;;;5.30;3.97;;;;;;;14.76;100.00;98062.41;5090944;28;20028;-79
2021/08/24 02:56:13;;;;;;;4.72;4.28;;;;;;;15.03;100.00;98070.44;5090949;28;20024;-81
2021/08/24 02:58:39;;;;;;;6.63;4.47;;;;;;;14.96;100.00;98062.63;5091711;28;20473;-81
2021/08/24 03:01:04;;;;;;;5.60;4.75;;;;;;;14.86;100.00;98060.16;5076353;28;20024;-82
2021/08/24 03:03:29;;;;;;;4.45;4.05;;;;;;;14.87;100.00;98072.81;5076653;28;20095;-83
2021/08/24 03:05:56;;;;;;;6.47;4.97;;;;;;;14.75;100.00;98067.13;5076282;28;20131;-83
2021/08/24 03:08:23;;;;;;;5.45;4.68;;;;;;;14.78;100.00;98068.41;5094394;28;20388;-80
2021/08/24 03:10:49;;;;;;;5.65;4.70;;;;;;;14.80;100.00;98068.91;5094725;28;20028;-79
2021/08/24 03:13:52;;;;;;;8.07;4.97;;;;;;;14.75;100.00;98064.38;5094192;28;20030;-81
2021/08/24 03:16:34;;;;;;;6.70;5.15;;;;;;;14.70;100.00;98063.69;5035070;28;20039;-80
2021/08/24 03:19:10;;;;;;;5.63;4.20;;;;;;;14.67;100.00;98073.41;5094673;28;20032;-80
2021/08/24 03:21:38;;;;;;;13.40;4.68;;;;;;;14.69;100.00;98057.34;5094480;28;20464;-81
2021/08/24 03:24:07;;;;;;;8.43;4.40;;;;;;;14.79;100.00;98062.56;5094037;28;20107;-81
2021/08/24 03:26:38;;;;;;;6.72;5.05;;;;;;;14.89;100.00;98059.53;5094178;28;20026;-80
2021/08/24 03:29:12;;;;;;;6.85;3.97;;;;;;;14.84;100.00;98048.69;5075868;28;20476;-80
2021/08/24 03:31:39;;;;;;;9.48;3.95;;;;;;;14.82;100.00;98050.09;5094250;28;20059;-82
2021/08/24 03:34:05;;;;;;;3.45;3.03;;;;;;;14.87;100.00;98056.28;5094188;28;20426;-81
2021/08/24 03:36:31;;;;;;;3.17;2.78;;;;;;;14.80;100.00;98061.47;5094316;28;20032;-83
2021/08/24 03:38:56;;;;;;;5.45;2.67;;;;;;;14.69;100.00;98045.56;5094195;28;20020;-80
2021/08/24 03:41:23;;;;;;;4.20;2.38;;;;;;;14.86;100.00;98060.16;5093857;28;20495;-83
2021/08/24 03:43:49;;;;;;;4.85;3.35;;;;;;;14.63;100.00;98049.59;5076376;28;20032;-82
2021/08/24 03:46:15;;;;;;;3.90;2.90;;;;;;;14.58;100.00;98061.53;5093991;28;20107;-81
2021/08/24 03:48:41;;;;;;;3.90;2.85;;;;;;;14.45;100.00;98059.72;5094127;28;20472;-83
2021/08/24 03:51:07;;;;;;;4.78;2.67;;;;;;;14.44;100.00;98055.31;5093487;28;20031;-79
2021/08/24 03:53:33;;;;;;;3.90;2.30;;;;;;;14.51;100.00;98063.13;5093818;28;20036;-80
2021/08/24 03:55:59;;;;;;;6.00;2.95;;;;;;;14.53;100.00;98053.44;5075544;28;20020;-81
2021/08/24 03:58:25;;;;;;;4.38;2.88;;;;;;;14.58;100.00;98060.72;5094297;28;20050;-81
2021/08/24 04:00:50;;;;;;;5.40;3.30;;;;;;;14.57;100.00;98059.91;5105692;28;20032;-80
2021/08/24 04:03:16;;;;;;;4.60;4.00;;;;;;;14.41;100.00;98067.78;5098323;28;20130;-80
2021/08/24 04:05:41;;;;;;;3.13;2.80;;;;;;;14.47;100.00;98065.72;5093252;28;20024;-81
2021/08/24 04:08:07;;;;;;;7.80;4.30;;;;;;;14.48;100.00;98068.16;5092929;28;20032;-81
2021/08/24 04:10:32;;;;;;;8.57;5.50;;;;;;;14.58;100.00;98072.56;5092635;28;20032;-82
2021/08/24 04:12:58;;;;;;;9.88;4.50;;;;;;;14.57;100.00;98081.94;5093579;28;20547;-83
2021/08/24 04:15:23;;;;;;;7.38;5.45;;;;;;;14.59;100.00;98085.19;5075793;28;20024;-80
2021/08/24 04:17:49;;;;;;;7.55;5.30;;;;;;;14.75;100.00;98080.91;5093443;28;20025;-83
2021/08/24 04:20:16;;;;;;;9.00;6.10;;;;;;;14.83;100.00;98084.78;5095577;28;20020;-83
2021/08/24 04:22:45;;;;;;;9.20;5.40;;;;;;;14.76;100.00;98082.50;5094975;28;20055;-80
2021/08/24 04:25:12;;;;;;;8.82;6.25;;;;;;;14.75;100.00;98080.91;5092876;28;20024;-80
2021/08/24 04:27:39;;;;;;;9.88;6.25;;;;;;;14.85;100.00;98083.31;5077962;28;20047;-83
2021/08/24 04:30:05;;;;;;;9.00;6.05;;;;;;;15.07;100.00;98078.88;5096553;28;20499;-81
2021/08/24 04:32:33;;;;;;;7.30;6.47;;;;;;;14.99;100.00;98084.03;5093076;28;20074;-80
2021/08/24 04:34:59;;;;;;;7.93;6.53;;;;;;;14.92;100.00;98078.16;5092671;28;20024;-80
2021/08/24 04:37:25;;;;;;;8.40;5.75;;;;;;;15.02;100.00;98069.63;5074797;28;20105;-81
2021/08/24 04:39:51;;;;;;;7.43;5.68;;;;;;;14.99;100.00;98078.53;5092593;28;20016;-80
2021/08/24 04:42:16;;;;;;;10.55;7.40;;;;;;;14.98;100.00;98076.88;5092876;28;20024;-79
2021/08/24 04:44:42;;;;;;;6.97;5.95;;;;;;;15.01;100.00;98079.00;5093439;28;20024;-79
2021/08/24 04:47:08;;;;;;;8.38;6.72;;;;;;;14.90;100.00;98077.69;5092604;28;20073;-80
2021/08/24 04:49:33;;;;;;;11.43;7.45;;;;;;;15.03;100.00;98075.94;5091987;28;20105;-78
2021/08/24 04:51:58;;;;;;;6.07;5.35;;;;;;;14.97;100.00;98069.75;5092831;28;20498;-81
2021/08/24 04:54:24;;;;;;;7.05;6.15;;;;;;;14.99;100.00;98073.00;5092259;28;20046;-81
2021/08/24 04:56:49;;;;;;;7.35;5.30;;;;;;;15.04;100.00;98080.28;5092321;28;20019;-82
2021/08/24 04:59:15;;;;;;;7.97;5.78;;;;;;;15.08;100.00;98081.28;5092664;28;20031;-81
2021/08/24 05:01:40;;;;;;;7.07;6.28;;;;;;;15.06;100.00;98082.75;5092563;28;20028;-77
2021/08/24 05:04:06;;;;;;;7.93;5.38;;;;;;;15.16;100.00;98083.22;5095435;28;20032;-80
2021/08/24 05:06:33;;;;;;;5.85;5.15;;;;;;;15.09;100.00;98077.41;5097368;28;20031;-82
2021/08/24 05:08:59;;;;;;;6.53;5.13;;;;;;;14.94;100.00;98081.41;5073535;28;20115;-74
2021/08/24 05:11:24;;;;;;;6.30;5.32;;;;;;;15.00;100.00;98091.13;5071348;28;20111;-77
2021/08/24 05:13:50;;;;;;;8.05;6.15;;;;;;;15.12;100.00;98092.47;5071583;28;20028;-76
2021/08/24 05:16:16;;;;;;;7.60;6.05;;;;;;;15.21;100.00;98101.56;5071557;28;20035;-76
2021/08/24 05:18:41;;;;;;;9.43;6.25;;;;;;;15.06;100.00;98100.09;5071049;28;20425;-73
2021/08/24 05:21:10;;;;;;;8.73;7.00;;;;;;;15.01;100.00;98111.25;5052957;28;20029;-74
2021/08/24 05:23:36;;;;;;;12.35;6.80;;;;;;;15.10;100.00;98101.06;5070842;28;20052;-75
2021/08/24 05:26:18;;;;;;;11.55;8.13;;;;;;;15.06;100.00;98099.28;5070057;28;20036;-74
2021/08/24 05:28:44;;;;;;;13.07;7.80;;;;;;;15.14;100.00;98107.56;5070687;28;20123;-76
2021/08/24 05:31:10;;;;;;;12.18;7.85;;;;;;;15.10;100.00;98109.31;5071504;28;20024;-74
2021/08/24 05:33:35;;;;;;;17.95;7.25;;;;;;;15.55;100.00;98112.66;5070904;28;20028;-76
2021/08/24 05:36:02;;;;;;;9.50;7.13;;;;;;;15.58;100.00;98108.44;5070557;28;20082;-77
2021/08/24 05:38:28;;;;;;;10.68;7.80;;;;;;;15.64;99.26;98118.16;5070161;28;20029;-75
2021/08/24 05:40:57;;;;;;;9.38;7.70;;;;;;;15.88;98.53;98105.50;5070419;28;20024;-74
2021/08/24 05:43:26;;;;;;;9.30;7.57;;;;;;;15.95;97.22;98108.59;5070748;28;20515;-74
2021/08/24 05:46:03;;;;;;;10.95;7.28;;;;;;;16.17;95.15;98115.03;5070916;28;20033;-75
2021/08/24 05:48:30;;;;;;;9.02;7.45;;;;;;;16.46;94.09;98109.63;5070181;28;20056;-74
2021/08/24 05:50:56;;;;;;;11.20;8.55;;;;;;;16.67;92.62;98110.56;5070374;28;20024;-74
2021/08/24 05:53:22;;;;;;;10.35;6.60;;;;;;;17.03;89.93;98112.84;5052348;28;20036;-74
2021/08/24 05:55:49;;;;;;;8.95;7.00;;;;;;;17.28;87.75;98119.34;5070839;28;20056;-75
2021/08/24 05:58:15;;;;;;;11.93;6.70;;;;;;;17.28;88.05;98122.94;5070050;28;20032;-74
2021/08/24 06:00:40;;;;;;;5.82;4.95;;;;;;;17.23;86.73;98108.50;5070597;28;20027;-74
2021/08/24 06:03:06;;;;;;;6.13;4.85;;;;;;;17.42;85.42;98120.72;5070380;28;20074;-75
2021/08/24 06:05:32;;;;;;;8.07;5.15;;;;;;;17.19;87.82;98121.38;5070062;28;20065;-75
2021/08/24 06:07:57;;;;;;;6.32;5.22;;;;;;;17.36;86.33;98124.00;5068804;28;20028;-76
2021/08/24 06:10:28;;;;;;;8.77;5.70;;;;;;;18.05;82.98;98127.91;5069945;28;20028;-74
2021/08/24 06:12:53;;;;;;;6.20;4.35;;;;;;;18.10;81.66;98137.97;5070166;28;20468;-74
2021/08/24 06:15:18;;;;;;;7.93;4.70;;;;;;;17.64;83.38;98131.50;5071669;28;20028;-75
2021/08/24 06:17:46;;;;;;;6.47;4.47;;;;;;;17.09;85.28;98128.91;5072677;28;20090;-74
2021/08/24 06:20:22;;;;;;;5.00;4.38;;;;;;;16.64;88.38;98130.53;5070311;28;20144;-75
2021/08/24 06:22:48;;;;;;;8.75;4.57;;;;;;;16.82;87.58;98136.84;5070516;28;20032;-75
2021/08/24 06:25:15;;;;;;;7.13;4.57;;;;;;;16.75;87.73;98139.28;5069549;28;20032;-73
2021/08/24 06:27:41;;;;;;;7.88;4.55;;;;;;;17.05;86.77;98141.75;5070320;28;20031;-74
2021/08/24 06:30:07;;;;;;;6.00;3.15;;;;;;;17.14;83.93;98134.22;5070079;28;20016;-74
2021/08/24 06:32:39;;;;;;;7.00;3.28;;;;;;;17.11;84.58;98143.19;5056099;28;20615;-73
2021/08/24 06:35:06;;;;;;;4.50;3.13;;;;;;;17.44;83.72;98143.34;5073047;28;20046;-73
2021/08/24 06:37:31;;;;;;;5.22;3.05;;;;;;;17.86;81.55;98141.41;5074039;28;20489;-74
2021/08/24 06:39:57;;;;;;;7.25;3.80;;;;;;;18.06;80.23;98146.13;5073492;28;20102;-74
2021/08/24 06:42:22;;;;;;;4.25;3.33;;;;;;;17.98;79.51;98147.00;5090008;28;20431;-73
2021/08/24 06:44:48;;;;;;;5.57;3.40;;;;;;;17.67;81.47;98148.59;5093340;28;20032;-74
2021/08/24 06:47:14;;;;;;;4.78;3.40;;;;;;;17.78;80.91;98147.84;5093168;28;20032;-74
2021/08/24 06:49:39;;;;;;;4.60;3.40;;;;;;;17.69;80.85;98141.56;5093336;28;20040;-76
2021/08/24 06:52:05;;;;;;;6.35;3.35;;;;;;;18.60;77.61;98149.69;5094151;28;20440;-75
2021/08/24 06:54:32;;;;;;;3.55;3.00;;;;;;;18.56;77.58;98153.50;5093755;28;20035;-74
2021/08/24 06:56:58;;;;;;;5.60;3.88;;;;;;;18.67;76.99;98154.66;5094156;28;20484;-75
2021/08/24 06:59:24;;;;;;;4.07;3.00;;;;;;;18.52;76.36;98156.13;5093691;28;20032;-76
2021/08/24 07:01:50;;;;;;;4.03;3.17;;;;;;;18.32;77.62;98145.91;5073309;28;20038;-75
2021/08/24 07:04:16;;;;;;;3.88;2.80;;;;;;;18.02;77.15;98160.97;5073742;28;20388;-75
2021/08/24 07:06:47;;;;;;;3.92;2.58;;;;;;;18.37;77.17;98145.66;5073810;28;20021;-78
2021/08/24 07:09:13;;;;;;;5.93;2.53;;;;;;;18.51;76.40;98157.28;5073765;28;20027;-78
2021/08/24 07:11:38;;;;;;;3.17;2.58;;;;;;;18.46;77.16;98148.34;5055402;28;20024;-76
2021/08/24 07:14:04;;;;;;;3.25;2.90;;;;;;;18.48;76.26;98146.06;5074035;28;20031;-76
2021/08/24 07:16:30;;;;;;;3.15;2.80;;;;;;;18.89;74.67;98145.91;5073937;28;20025;-78
2021/08/24 07:18:57;;;;;;;3.25;2.28;;;;;;;19.66;71.71;98146.88;5074204;28;20024;-75
2021/08/24 07:21:23;;;;;;;8.10;3.05;;;;;;;21.16;65.50;98151.53;5055783;28;20074;-76
2021/08/24 07:23:49;;;;;;;3.72;3.00;;;;;;;22.12;60.82;98151.75;5073434;28;20489;-77
2021/08/24 07:26:16;;;;;;;3.65;2.67;;;;;;;21.76;62.17;98146.56;5073817;28;20039;-73
2021/08/24 07:28:41;;;;;;;3.65;3.17;;;;;;;22.62;60.26;98149.97;5072975;28;20123;-75
2021/08/24 07:31:08;;;;;;;7.05;2.92;;;;;;;23.46;57.18;98145.91;5073357;28;20822;-74
2021/08/24 07:33:34;;;;;;;5.72;2.90;;;;;;;23.25;57.05;98153.13;5073521;28;20388;-76
2021/08/24 07:36:00;;;;;;;5.03;2.30;;;;;;;24.06;55.17;98148.78;5073356;28;20036;-74
2021/08/24 07:38:26;;;;;;;4.97;2.20;;;;;;;23.97;54.53;98137.06;5072909;28;20020;-73
2021/08/24 07:40:52;;;;;;;4.20;2.72;;;;;;;24.21;53.36;98136.63;5073668;28;20025;-73
2021/08/24 07:43:18;;;;;;;3.83;2.20;;;;;;;23.86;53.50;98133.34;5069682;28;20016;-73
2021/08/24 07:45:46;;;;;;;3.15;2.20;;;;;;;23.37;54.95;98142.56;5072021;28;20027;-73
2021/08/24 07:48:11;;;;;;;3.30;2.63;;;;;;;24.25;52.14;98143.06;5073095;28;20070;-73
2021/08/24 07:50:37;;;;;;;2.70;2.15;;;;;;;23.13;55.33;98137.38;5055142;28;20111;-75
2021/08/24 07:53:03;;;;;;;3.30;2.78;;;;;;;22.75;56.37;98143.06;5072723;28;20059;-73
2021/08/24 07:55:29;;;;;;;3.15;2.45;;;;;;;22.35;57.36;98135.91;5071749;28;20029;-72
2021/08/24 07:57:54;;;;;;;7.63;3.17;;;;;;;22.63;56.60;98134.84;5071543;28;20599;-74
2021/08/24 08:00:20;;;;;;;3.13;2.60;;;;;;;23.46;54.92;98137.53;5071819;28;20021;-73
2021/08/24 08:02:45;;;;;;;4.20;3.00;;;;;;;24.03;52.21;98138.34;5071505;28;20025;-74
2021/08/24 08:05:14;;;;;;;2.75;2.30;;;;;;;23.58;54.28;98136.53;5070241;28;20389;-75
2021/08/24 08:07:39;;;;;;;4.30;3.38;;;;;;;21.99;58.09;98141.13;5071266;28;20028;-75
2021/08/24 08:10:06;;;;;;;7.05;5.18;;;;;;;23.15;56.22;98145.38;5071629;28;20030;-75
2021/08/24 08:12:31;;;;;;;3.78;2.95;;;;;;;24.87;51.62;98149.00;5071285;28;20091;-74
2021/08/24 08:14:56;;;;;;;3.65;2.42;;;;;;;24.97;50.69;98142.69;5073286;28;20025;-73
2021/08/24 08:17:22;;;;;;;4.13;2.45;;;;;;;24.44;52.33;98142.09;5069878;28;20020;-74
2021/08/24 08:19:47;;;;;;;6.35;2.67;;;;;;;25.20;50.48;98150.91;5069800;28;20060;-71
2021/08/24 08:22:13;;;;;;;2.97;2.22;;;;;;;26.30;47.37;98156.09;5069717;28;20021;-71
2021/08/24 08:24:39;;;;;;;2.50;2.00;;;;;;;25.51;49.61;98156.78;5069987;28;20043;-71
2021/08/24 08:27:05;;;;;;;3.13;2.83;;;;;;;25.11;50.29;98156.81;5070196;28;20024;-71
2021/08/24 08:29:30;;;;;;;4.07;2.15;;;;;;;26.82;45.57;98160.31;5074253;28;20020;-72
2021/08/24 08:32:01;;;;;;;5.20;2.40;;;;;;;26.25;47.21;98156.47;5073453;28;20474;-71
2021/08/24 08:34:27;;;;;;;3.67;2.13;;;;;;;27.01;46.32;98159.13;5070634;28;20024;-75
2021/08/24 08:36:53;;;;;;;2.55;2.35;;;;;;;25.90;48.03;98156.25;5069293;28;20035;-76
2021/08/24 08:39:18;;;;;;;3.78;2.67;;;;;;;24.45;50.24;98136.13;5069712;28;20029;-74
2021/08/24 08:42:26;;;;;;;4.80;3.40;;;;;;;22.80;55.86;98138.00;5069762;28;20020;-76
2021/08/24 08:44:57;;;;;;;5.97;3.17;;;;;;;23.04;58.86;98145.19;5051752;28;20028;-72
2021/08/24 08:47:30;;;;;;;9.25;3.42;;;;;;;22.95;61.37;98144.66;5070289;28;20029;-76
2021/08/24 08:50:22;;;;;;;3.78;3.28;;;;;;;23.43;54.56;98132.69;5050758;28;20489;-79
2021/08/24 08:53:08;;;;;;;5.60;3.38;;;;;;;22.49;58.28;98137.38;5070605;28;20485;-75
2021/08/24 08:55:45;;;;;;;5.15;3.63;;;;;;;22.13;62.78;98133.88;5053339;28;20127;-77
2021/08/24 08:58:50;;;;;;;7.25;3.53;;;;;;;22.65;60.58;98135.28;5056313;28;20062;-77
2021/08/24 09:01:32;;;;;;;6.00;3.78;;;;;;;21.97;59.63;98132.31;5053938;28;20465;-82
2021/08/24 09:04:15;;;;;;;5.90;3.78;;;;;;;22.17;61.86;98136.72;5051347;28;20020;-78
2021/08/24 09:06:43;;;;;;;7.43;4.30;;;;;;;22.21;59.66;98129.25;5068897;28;20633;-81
2021/08/24 09:09:09;;;;;;;10.55;3.50;;;;;;;21.96;60.51;98125.94;5070519;28;20023;-84
2021/08/24 09:11:43;;;;;;;5.60;3.08;;;;;;;22.15;60.57;98145.44;5070937;28;20028;-79
2021/08/24 09:14:33;;;;;;;5.03;3.78;;;;;;;22.88;62.48;98134.16;5068930;28;20021;-79
2021/08/24 09:17:24;;;;;;;3.72;3.13;;;;;;;23.29;61.41;98134.44;5069386;28;20035;-77
2021/08/24 09:20:02;;;;;;;4.32;3.47;;;;;;;22.48;61.17;98141.34;5069888;28;20024;-78
2021/08/24 09:22:27;;;;;;;6.43;3.33;;;;;;;22.64;59.67;98133.69;5068327;28;20067;-76
2021/08/24 09:24:53;;;;;;;4.90;2.83;;;;;;;22.14;59.41;98131.91;5052098;28;20481;-79
2021/08/24 09:27:37;;;;;;;5.50;3.17;;;;;;;22.05;59.69;98140.47;5060415;28;20024;-74
2021/08/24 09:30:04;;;;;;;8.23;3.90;;;;;;;22.03;61.23;98130.84;5070861;28;20086;-78
2021/08/24 09:32:30;;;;;;;3.80;2.70;;;;;;;22.37;61.80;98133.56;5071375;28;20052;-76
2021/08/24 09:35:25;;;;;;;6.97;3.63;;;;;;;21.91;60.71;98136.56;5070549;28;20060;-74
2021/08/24 09:37:51;;;;;;;3.97;3.15;;;;;;;21.82;64.92;98120.84;5060922;28;20106;-75
2021/08/24 09:40:41;;;;;;;3.28;2.70;;;;;;;22.38;63.78;98126.81;5069052;28;20021;-74
2021/08/24 09:43:29;;;;;;;5.68;2.67;;;;;;;23.18;63.14;98117.50;5089615;28;20031;-74
2021/08/24 09:46:27;;;;;;;5.88;3.05;;;;;;;23.45;62.42;98124.78;5090442;28;20050;-75
2021/08/24 09:49:33;;;;;;;3.13;2.75;;;;;;;23.13;62.31;98126.22;5086657;28;20052;-76
2021/08/24 09:52:00;;;;;;;5.13;3.38;;;;;;;22.99;63.49;98131.56;5028321;28;20140;-74
2021/08/24 09:54:33;;;;;;;6.38;3.30;;;;;;;23.48;57.72;98119.59;5080826;28;20403;-74
2021/08/24 09:57:28;;;;;;;4.40;2.83;;;;;;;23.13;60.95;98134.59;5072898;28;20028;-75
2021/08/24 09:59:58;;;;;;;2.20;2.00;;;;;;;22.76;62.53;98123.19;5090849;28;20023;-74
2021/08/24 10:02:41;;;;;;;5.68;2.75;;;;;;;22.74;59.03;98122.72;5091014;28;20031;-77
2021/08/24 10:05:36;;;;;;;6.97;2.35;;;;;;;22.70;57.67;98115.50;5094095;28;20020;-78
2021/08/24 10:08:26;;;;;;;3.63;3.00;;;;;;;22.90;57.57;98111.44;5090127;28;20044;-75
2021/08/24 10:11:04;;;;;;;4.05;2.40;;;;;;;23.22;57.83;98104.41;5091339;28;20028;-78
2021/08/24 10:13:33;;;;;;;8.65;2.95;;;;;;;22.97;58.45;98106.00;5073055;28;20031;-77
2021/08/24 10:16:19;;;;;;;3.88;2.65;;;;;;;22.92;57.62;98106.31;5091286;28;20036;-74
2021/08/24 10:18:48;;;;;;;5.03;2.78;;;;;;;23.21;57.63;98097.22;5091612;28;20093;-75
2021/08/24 10:21:29;;;;;;;3.63;2.92;;;;;;;23.03;57.52;98084.97;5091464;28;20028;-73
2021/08/24 10:23:58;;;;;;;1.73;1.63;;;;;;;23.36;57.33;98096.28;5072558;28;20119;-74
2021/08/24 10:26:28;;;;;;;3.45;1.92;;;;;;;23.34;57.19;98090.25;5090801;28;20886;-75
2021/08/24 10:28:59;;;;;;;5.63;2.30;;;;;;;23.37;59.88;98078.31;5090589;28;20024;-75
2021/08/24 10:31:25;;;;;;;1.98;1.73;;;;;;;23.66;57.41;98085.16;5090347;28;20043;-75
2021/08/24 10:33:55;;;;;;;5.22;2.85;;;;;;;22.93;56.27;98089.19;5090312;28;20028;-73
2021/08/24 10:36:32;;;;;;;6.78;2.08;;;;;;;22.97;59.63;98086.47;5090607;28;20024;-75
2021/08/24 10:38:59;;;;;;;2.83;1.38;;;;;;;23.19;54.41;98082.84;5087982;28;20185;-75
2021/08/24 10:41:41;;;;;;;1.60;1.50;;;;;;;23.27;57.13;98076.19;5093937;28;20420;-75
2021/08/24 10:44:21;;;;;;;4.32;1.20;;;;;;;23.69;52.73;98072.41;5077375;28;20404;-76
2021/08/24 10:46:49;;;;;;;2.42;1.40;;;;;;;23.73;52.38;98068.50;5064851;28;20181;-74
2021/08/24 10:49:16;;;;;;;1.67;1.20;;;;;;;23.66;53.10;98073.19;5068830;28;20044;-74
2021/08/24 10:52:04;;;;;;;3.45;1.55;;;;;;;22.99;53.73;98072.97;5067210;28;20028;-74
2021/08/24 10:54:39;;;;;;;1.42;1.20;;;;;;;23.15;51.84;98068.00;5068525;28;20040;-75
2021/08/24 10:57:18;;;;;;;1.63;1.47;;;;;;;23.15;51.60;98061.66;5068516;28;20107;-75
2021/08/24 11:00:37;;;;;;;3.22;1.00;;;;;;;23.86;50.86;98061.50;5068159;28;20039;-75
2021/08/24 11:03:03;;;;;;;1.98;1.13;;;;;;;23.87;53.72;98065.09;5037787;28;20129;-74
2021/08/24 11:05:52;;;;;;;2.50;1.38;;;;;;;23.79;50.32;98063.38;5071279;28;20029;-75
2021/08/24 11:08:24;;;;;;;1.75;0.80;;;;;;;23.55;53.03;98055.47;5062520;28;20171;-75
2021/08/24 11:11:25;;;;;;;1.60;1.10;;;;;;;23.54;51.04;98059.44;5048240;28;20036;-75
2021/08/24 11:13:50;;;;;;;3.33;1.42;;;;;;;23.78;50.25;98053.38;4982398;28;20131;-75
2021/08/24 11:16:40;;;;;;;4.10;0.75;;;;;;;24.26;50.57;98065.56;5066276;28;20115;-74
2021/08/24 11:19:24;;;;;;;4.88;1.42;;;;;;;24.23;49.29;98058.75;5065166;28;20103;-75
2021/08/24 11:22:25;;;;;;;3.03;1.42;;;;;;;23.69;51.02;98055.66;5069384;28;20476;-76
2021/08/24 11:25:04;;;;;;;1.20;1.00;;;;;;;23.63;50.93;98054.38;5037047;28;20459;-76
2021/08/24 11:28:11;;;;;;;1.65;1.38;;;;;;;23.99;50.33;98056.47;5069728;28;20078;-74
2021/08/24 11:30:43;;;;;;;1.75;1.20;;;;;;;23.98;50.38;98064.03;5066737;28;20051;-74
2021/08/24 11:33:15;;;;;;;2.72;0.88;;;;;;;24.16;51.10;98052.28;5070515;28;20032;-74
2021/08/24 11:35:58;;;;;;;3.25;1.63;;;;;;;24.67;50.28;98053.22;5070544;28;20028;-74
2021/08/24 11:38:29;;;;;;;1.85;1.30;;;;;;;24.30;49.77;98058.03;5068953;28;20055;-74
2021/08/24 11:41:00;;;;;;;2.05;1.08;;;;;;;24.26;50.71;98052.41;5064687;28;20032;-74
2021/08/24 11:43:35;;;;;;;1.65;1.10;;;;;;;23.48;53.43;98056.19;5051200;28;20040;-75
2021/08/24 11:46:07;;;;;;;5.28;1.48;;;;;;;23.69;50.38;98045.28;5068860;28;20358;-74
2021/08/24 11:48:37;;;;;;;1.27;1.17;;;;;;;24.15;51.20;98056.28;5069247;28;20045;-75
2021/08/24 11:51:15;;;;;;;2.03;1.40;;;;;;;24.63;49.33;98034.78;5069592;28;20401;-73